Time;durP1;ratioP1;P1;durP2;ratioP2;P2;SDS_P1;SDS_P2;PMS_P1;PMS_P2;Temp;Humidity;BMP_temperature;BMP_pressure;BME280_temperature;BME280_humidity;BME280_pressure;Samples;Min_cycle;Max_cycle;Signal;HPM_P1;HPM_P2
2022/09/30 00:01:28;;;;;;;12.77;8.60;;;;;;;-145.18;100.00;46670.16;6209865;23;20280;-77
2022/09/30 00:03:55;;;;;;;12.50;8.47;;;;;;;-145.18;100.00;46666.25;6236059;23;20361;-77
2022/09/30 00:06:22;;;;;;;12.40;8.80;;;;;;;-145.18;100.00;46670.16;6212148;23;20015;-77
2022/09/30 00:08:47;;;;;;;11.67;9.37;;;;;;;-145.18;100.00;46662.34;6212965;23;20280;-77
2022/09/30 00:11:16;;;;;;;11.40;9.00;;;;;;;-145.18;100.00;46666.25;6211783;23;20672;-77
2022/09/30 00:13:43;;;;;;;12.90;10.60;;;;;;;-145.18;100.00;46668.22;6212738;23;20008;-78
2022/09/30 00:16:10;;;;;;;14.37;9.90;;;;;;;-145.18;100.00;46670.16;6212122;23;20773;-78
2022/09/30 00:18:36;;;;;;;16.37;10.90;;;;;;;-145.18;100.00;46670.16;6212611;23;20238;-77
2022/09/30 00:21:02;;;;;;;12.93;10.07;;;;;;;-145.18;100.00;46670.16;6212517;23;20708;-78
2022/09/30 00:23:28;;;;;;;14.20;9.67;;;;;;;-145.18;100.00;46668.22;6212083;23;20266;-77
2022/09/30 00:26:02;;;;;;;10.60;8.40;;;;;;;-145.18;100.00;46662.34;6212179;23;20269;-78
2022/09/30 00:28:28;;;;;;;10.40;7.47;;;;;;;-145.18;100.00;46668.22;6211703;23;20001;-78
2022/09/30 00:30:59;;;;;;;10.63;8.43;;;;;;;-145.18;100.00;46672.13;6212639;23;20238;-78
2022/09/30 00:33:24;;;;;;;10.40;8.63;;;;;;;-145.18;100.00;46664.31;6211985;23;20218;-78
2022/09/30 00:35:50;;;;;;;11.90;7.67;;;;;;;-145.18;100.00;46664.31;6212596;23;20545;-78
2022/09/30 00:38:15;;;;;;;8.83;7.80;;;;;;;-145.18;100.00;46666.25;6211219;23;20008;-78
2022/09/30 00:40:40;;;;;;;9.80;6.80;;;;;;;-145.18;100.00;46668.22;6212673;23;20013;-78
2022/09/30 00:43:14;;;;;;;8.27;7.03;;;;;;;-145.18;100.00;46662.34;6235911;23;20016;-78
2022/09/30 00:45:50;;;;;;;8.40;7.33;;;;;;;-145.18;100.00;46664.31;6212725;23;20005;-78
2022/09/30 00:48:22;;;;;;;10.13;6.60;;;;;;;-145.18;100.00;46670.16;6212438;23;20254;-79
2022/09/30 00:50:54;;;;;;;8.73;6.93;;;;;;;-145.18;100.00;46664.31;6214261;23;20004;-78
2022/09/30 00:53:35;;;;;;;8.10;7.07;;;;;;;-145.18;100.00;46660.41;6213468;23;20222;-78
2022/09/30 00:56:22;;;;;;;65.13;7.67;;;;;;;-145.18;100.00;46668.22;6214863;23;20218;-78
2022/09/30 00:59:13;;;;;;;9.37;6.57;;;;;;;-145.18;100.00;46666.25;6214152;23;20234;-78
2022/09/30 01:01:40;;;;;;;8.03;6.53;;;;;;;-145.18;100.00;46670.16;6213858;23;20233;-79
2022/09/30 01:04:12;;;;;;;7.40;5.93;;;;;;;-145.18;100.00;46668.22;6214125;23;20246;-79
2022/09/30 01:06:37;;;;;;;9.93;6.47;;;;;;;-145.18;100.00;46670.16;6213606;23;20254;-79
2022/09/30 01:09:03;;;;;;;7.93;7.10;;;;;;;-145.18;100.00;46668.22;6214410;23;20257;-79
2022/09/30 01:11:29;;;;;;;7.03;6.23;;;;;;;-145.18;100.00;46668.22;6213270;23;20005;-79
2022/09/30 01:13:59;;;;;;;4.67;4.27;;;;;;;-145.18;100.00;46668.22;6212477;23;20018;-79
2022/09/30 01:16:52;;;;;;;3.73;3.00;;;;;;;-145.18;100.00;46670.16;6213547;23;20004;-78
2022/09/30 01:19:28;;;;;;;4.47;3.47;;;;;;;-145.18;100.00;46660.41;6213918;23;20234;-79
2022/09/30 01:22:30;;;;;;;4.40;3.80;;;;;;;-145.18;100.00;46658.44;6213692;23;20223;-79
2022/09/30 01:25:35;;;;;;;4.43;3.80;;;;;;;-145.18;100.00;46672.13;6214117;23;20103;-80
2022/09/30 01:28:35;;;;;;;9.50;4.33;;;;;;;-145.18;100.00;46668.22;6213855;23;20305;-79
2022/09/30 01:31:22;;;;;;;7.70;4.30;;;;;;;-145.18;100.00;46662.34;6214543;23;20234;-79
2022/09/30 01:33:56;;;;;;;4.00;3.60;;;;;;;-145.18;100.00;46672.13;6214221;23;20556;-80
2022/09/30 01:36:31;;;;;;;5.70;4.73;;;;;;;-145.18;100.00;46668.22;6213265;23;20361;-80
2022/09/30 01:39:33;;;;;;;4.80;4.10;;;;;;;-145.18;100.00;46666.25;6214189;23;20218;-79
2022/09/30 01:42:05;;;;;;;4.23;3.67;;;;;;;-145.18;100.00;46666.25;6213725;23;20226;-79
2022/09/30 01:44:45;;;;;;;4.63;3.50;;;;;;;-145.18;100.00;46668.22;6213526;23;20699;-80
2022/09/30 01:47:20;;;;;;;3.77;3.33;;;;;;;-145.18;100.00;46666.25;6213569;23;20221;-80
2022/09/30 01:49:52;;;;;;;;;;;;;;;-145.18;100.00;46666.25;6214663;23;20222;-80
2022/09/30 01:52:36;;;;;;;10.33;4.77;;;;;;;-145.18;100.00;46670.16;6213405;23;20266;-80
2022/09/30 01:55:17;;;;;;;4.93;4.23;;;;;;;-145.18;100.00;46674.06;6213848;23;20353;-81
2022/09/30 01:57:55;;;;;;;4.37;3.97;;;;;;;-145.18;100.00;46668.22;6213405;23;20252;-81
2022/09/30 02:03:15;;;;;;;4.40;4.00;;;;;;;-145.18;100.00;46670.16;6215903;22;20273;-80
2022/09/30 02:05:52;;;;;;;4.77;3.97;;;;;;;-145.18;100.00;46674.06;6242441;23;20012;-81
2022/09/30 02:08:27;;;;;;;4.23;3.83;;;;;;;-145.18;100.00;46670.16;6216158;23;20273;-80
2022/09/30 02:11:27;;;;;;;3.65;3.13;;;;;;;-145.18;100.00;46668.22;6243182;23;20590;-81
2022/09/30 02:14:04;;;;;;;5.43;3.47;;;;;;;-145.18;100.00;46666.25;6239132;23;20012;-81
2022/09/30 02:16:44;;;;;;;5.53;3.20;;;;;;;-145.18;100.00;46670.16;6243729;23;20225;-81
2022/09/30 02:19:17;;;;;;;3.77;3.37;;;;;;;-145.18;100.00;46668.22;6243885;23;20611;-80
2022/09/30 02:21:50;;;;;;;9.27;4.53;;;;;;;-145.18;100.00;46672.13;6243170;23;20716;-79
2022/09/30 02:24:18;;;;;;;10.40;4.80;;;;;;;-145.18;100.00;46664.31;6243752;23;20288;-80
2022/09/30 02:26:47;;;;;;;10.80;4.43;;;;;;;-145.18;100.00;46664.31;6242898;23;20574;-79
2022/09/30 02:29:22;;;;;;;195.40;8.97;;;;;;;-145.18;100.00;46668.22;6243753;23;20242;-79
2022/09/30 02:31:52;;;;;;;30.57;5.00;;;;;;;-145.18;100.00;46666.25;6242991;23;20547;-79
2022/09/30 02:34:21;;;;;;;53.83;5.17;;;;;;;-145.18;100.00;46670.16;6243995;23;20226;-79
2022/09/30 02:37:15;;;;;;;35.90;5.67;;;;;;;-145.18;100.00;46670.16;6243059;23;20697;-79
2022/09/30 02:40:01;;;;;;;4.70;4.00;;;;;;;-145.18;100.00;46668.22;6243610;23;20746;-80
2022/09/30 02:42:29;;;;;;;7.47;4.15;;;;;;;-145.18;100.00;46666.25;6243197;23;20244;-80
2022/09/30 02:45:15;;;;;;;5.40;3.47;;;;;;;-145.18;100.00;46674.06;6243168;23;20004;-81
2022/09/30 02:47:52;;;;;;;6.00;4.30;;;;;;;-145.18;100.00;46668.22;6242879;23;20308;-81
2022/09/30 02:50:28;;;;;;;6.60;4.83;;;;;;;-145.18;100.00;46666.25;6243808;23;20558;-82
2022/09/30 02:53:08;;;;;;;14.07;5.10;;;;;;;-145.18;100.00;46668.22;6242933;23;20249;-81
2022/09/30 02:55:48;;;;;;;4.77;3.93;;;;;;;-145.18;100.00;46664.31;6243158;23;20232;-80
2022/09/30 02:58:18;;;;;;;5.47;3.30;;;;;;;-145.18;100.00;46662.34;6242767;23;20222;-81
2022/09/30 03:00:44;;;;;;;9.60;3.77;;;;;;;-145.18;100.00;46664.31;6243785;23;20217;-80
2022/09/30 03:03:17;;;;;;;34.67;4.67;;;;;;;-145.18;100.00;46670.16;6223725;23;20258;-81
2022/09/30 03:05:43;;;;;;;58.07;5.40;;;;;;;-145.18;100.00;46668.22;6186169;23;20004;-81
2022/09/30 03:08:09;;;;;;;36.40;5.53;;;;;;;-145.18;100.00;46666.25;6212467;23;20265;-81
2022/09/30 03:10:35;;;;;;;49.47;5.60;;;;;;;-145.18;100.00;46660.41;6212579;23;20243;-81
2022/09/30 03:13:27;;;;;;;31.50;5.33;;;;;;;-145.18;100.00;46668.22;6212415;23;20429;-81
2022/09/30 03:16:13;;;;;;;6.13;4.93;;;;;;;-145.18;100.00;46666.25;6212914;23;20001;-82
2022/09/30 03:19:12;;;;;;;7.07;4.00;;;;;;;-145.18;100.00;46660.41;6212336;23;20253;-82
2022/09/30 03:22:18;;;;;;;4.53;2.70;;;;;;;-145.18;100.00;46666.25;6165792;23;20234;-82
2022/09/30 03:25:14;;;;;;;5.17;2.80;;;;;;;-145.18;100.00;46660.41;6178657;23;20556;-81
2022/09/30 03:27:51;;;;;;;10.60;3.08;;;;;;;-145.18;100.00;46666.25;6211909;23;20242;-81
2022/09/30 03:30:19;;;;;;;8.53;2.70;;;;;;;-145.18;100.00;46664.31;6213079;23;20448;-81
2022/09/30 03:33:18;;;;;;;9.13;2.90;;;;;;;-145.18;100.00;46662.34;6212403;23;20227;-81
2022/09/30 03:35:53;;;;;;;4.43;3.43;;;;;;;-145.18;100.00;46662.34;6210371;23;20295;-80
2022/09/30 03:38:34;;;;;;;4.93;3.87;;;;;;;-145.18;100.00;46662.34;6185002;23;20234;-80
2022/09/30 03:41:50;;;;;;;4.93;4.20;;;;;;;-145.18;100.00;46666.25;6212049;23;20273;-80
2022/09/30 03:44:21;;;;;;;4.67;3.70;;;;;;;-145.18;100.00;46668.22;6161613;23;20238;-81
2022/09/30 03:46:54;;;;;;;4.17;3.50;;;;;;;-145.18;100.00;46660.41;6212010;23;20226;-81
2022/09/30 03:49:24;;;;;;;4.37;2.97;;;;;;;-145.18;100.00;46662.34;6212508;23;20254;-81
2022/09/30 03:51:50;;;;;;;6.17;3.67;;;;;;;-145.18;100.00;46660.41;6211922;23;20226;-82
2022/09/30 03:54:16;;;;;;;4.00;3.37;;;;;;;-145.18;100.00;46666.25;6211947;23;20295;-81
2022/09/30 03:56:42;;;;;;;4.83;2.50;;;;;;;-145.18;100.00;46660.41;6211790;23;20296;-82
2022/09/30 03:59:25;;;;;;;3.30;1.97;;;;;;;-145.18;100.00;46664.31;6185272;23;20016;-81
2022/09/30 04:01:51;;;;;;;4.73;3.70;;;;;;;-145.18;100.00;46662.34;6211659;23;20231;-81
2022/09/30 04:04:17;;;;;;;6.87;3.57;;;;;;;-145.18;100.00;46668.22;6212046;23;20230;-81
2022/09/30 04:06:42;;;;;;;4.80;3.70;;;;;;;-145.18;100.00;46662.34;6211867;23;20353;-82
2022/09/30 04:09:08;;;;;;;5.33;3.67;;;;;;;-145.18;100.00;46664.31;6210112;23;20032;-82
2022/09/30 04:11:33;;;;;;;7.67;4.33;;;;;;;-145.18;100.00;46662.34;6212343;23;20004;-84
2022/09/30 04:14:00;;;;;;;7.63;2.70;;;;;;;-145.18;100.00;46666.25;6211189;23;20009;-83
2022/09/30 04:16:27;;;;;;;6.20;4.73;;;;;;;-145.18;100.00;46664.31;6210646;23;20014;-82
2022/09/30 04:18:52;;;;;;;4.93;3.27;;;;;;;-145.18;100.00;46666.25;6211734;23;20237;-83
2022/09/30 04:21:17;;;;;;;4.87;4.17;;;;;;;-145.18;100.00;46664.31;6210497;23;20321;-83
2022/09/30 04:23:43;;;;;;;4.53;3.07;;;;;;;-145.18;100.00;46664.31;6209717;23;20005;-83
2022/09/30 04:26:13;;;;;;;9.37;2.80;;;;;;;-145.18;100.00;46666.25;6211023;23;20090;-82
2022/09/30 04:28:39;;;;;;;10.33;3.13;;;;;;;-145.18;100.00;46668.22;6211590;23;20011;-83
2022/09/30 04:31:05;;;;;;;3.33;2.80;;;;;;;-145.18;100.00;46662.34;6212240;23;20242;-82
2022/09/30 04:33:31;;;;;;;7.00;3.50;;;;;;;-145.18;100.00;46666.25;6211893;23;20076;-83
2022/09/30 04:35:58;;;;;;;30.87;4.10;;;;;;;-145.18;100.00;46664.31;6211735;23;20313;-83
2022/09/30 04:38:24;;;;;;;8.77;3.03;;;;;;;-145.18;100.00;46664.31;6211738;23;20028;-84
2022/09/30 04:40:53;;;;;;;22.43;3.80;;;;;;;-145.18;100.00;46668.22;6212274;23;20238;-82
2022/09/30 04:43:21;;;;;;;3.33;3.00;;;;;;;-145.18;100.00;46668.22;6185634;23;20111;-86
2022/09/30 04:45:47;;;;;;;11.93;6.13;;;;;;;-145.18;100.00;46670.16;6212161;23;20231;-83
2022/09/30 04:48:13;;;;;;;6.47;5.47;;;;;;;-145.18;100.00;46664.31;6211332;23;20261;-84
2022/09/30 04:50:39;;;;;;;7.00;4.97;;;;;;;-145.18;100.00;46666.25;6211728;23;20229;-82
2022/09/30 04:53:05;;;;;;;6.53;3.67;;;;;;;-145.18;100.00;46670.16;6182630;23;20229;-82
2022/09/30 04:55:31;;;;;;;6.30;4.90;;;;;;;-145.18;100.00;46664.31;6210511;23;20234;-83
2022/09/30 04:57:56;;;;;;;6.73;5.30;;;;;;;-145.18;100.00;46660.41;6211313;23;20308;-85
2022/09/30 05:00:23;;;;;;;7.97;5.47;;;;;;;-145.18;100.00;46662.34;6211526;23;20009;-85
2022/09/30 05:02:49;;;;;;;7.03;6.00;;;;;;;-145.18;100.00;46664.31;6183642;23;20095;-82
2022/09/30 05:05:14;;;;;;;11.47;6.37;;;;;;;-145.18;100.00;46662.34;6212337;23;20607;-85
2022/09/30 05:07:40;;;;;;;6.50;5.90;;;;;;;-145.18;100.00;46664.31;6210329;23;20084;-85
2022/09/30 05:10:07;;;;;;;9.03;6.53;;;;;;;-145.18;100.00;46660.41;6210681;23;20009;-86
2022/09/30 05:12:33;;;;;;;9.03;6.73;;;;;;;-145.18;100.00;46658.44;6212588;23;20456;-86
2022/09/30 05:14:58;;;;;;;8.53;7.23;;;;;;;-145.18;100.00;46662.34;6211278;23;20231;-85
2022/09/30 05:17:23;;;;;;;13.20;7.50;;;;;;;-145.18;100.00;46662.34;6211419;23;20313;-85
2022/09/30 05:19:49;;;;;;;11.23;7.33;;;;;;;-145.18;100.00;46658.44;6211778;23;20031;-85
2022/09/30 05:22:14;;;;;;;12.93;8.20;;;;;;;-145.18;100.00;46660.41;6212214;23;20016;-86
2022/09/30 05:24:39;;;;;;;9.93;8.43;;;;;;;-145.18;100.00;46662.34;6211837;23;20433;-85
2022/09/30 05:27:06;;;;;;;11.23;8.07;;;;;;;-145.18;100.00;46662.34;6212318;23;20079;-86
2022/09/30 05:29:31;;;;;;;23.83;10.23;;;;;;;-145.18;100.00;46658.44;6212958;23;20012;-84
2022/09/30 05:31:57;;;;;;;11.13;7.70;;;;;;;-145.18;100.00;46656.50;6208802;23;20768;-85
2022/09/30 05:34:22;;;;;;;12.37;8.00;;;;;;;-145.18;100.00;46660.41;6212005;23;20013;-85
2022/09/30 05:36:47;;;;;;;9.27;7.47;;;;;;;-145.18;100.00;46654.53;6212149;23;20087;-85
2022/09/30 05:39:13;;;;;;;8.50;7.33;;;;;;;-145.18;100.00;46656.50;6211133;23;20011;-85
2022/09/30 05:41:38;;;;;;;7.53;6.43;;;;;;;-145.18;100.00;46654.53;6187496;23;20012;-85
2022/09/30 05:44:04;;;;;;;8.20;6.20;;;;;;;-145.18;100.00;46662.34;6209975;23;20013;-86
2022/09/30 05:46:29;;;;;;;12.17;7.03;;;;;;;-145.18;100.00;46656.50;6215950;23;20008;-85
2022/09/30 05:48:54;;;;;;;10.80;8.77;;;;;;;-145.18;100.00;46656.50;6215049;23;20016;-85
2022/09/30 05:51:20;;;;;;;15.47;11.57;;;;;;;-145.18;100.00;46660.41;6215688;23;20437;-84
2022/09/30 05:53:46;;;;;;;20.43;11.70;;;;;;;-145.18;100.00;46660.41;6213618;23;20062;-85
2022/09/30 05:56:11;;;;;;;14.20;9.97;;;;;;;-145.18;100.00;46656.50;6214195;23;20226;-85
2022/09/30 05:58:39;;;;;;;46.43;11.03;;;;;;;-145.18;100.00;46660.41;6212262;23;20004;-85
2022/09/30 06:01:07;;;;;;;14.43;11.13;;;;;;;-145.18;100.00;46656.50;6213593;23;20457;-85
2022/09/30 06:03:34;;;;;;;15.03;10.30;;;;;;;-145.18;100.00;46654.53;6212992;23;20250;-84
2022/09/30 06:05:59;;;;;;;20.10;13.77;;;;;;;-145.18;100.00;46656.50;6213152;23;20239;-85
2022/09/30 06:08:25;;;;;;;19.80;14.13;;;;;;;-145.18;100.00;46652.59;6212666;23;20301;-85
2022/09/30 06:10:50;;;;;;;19.97;12.97;;;;;;;-145.18;100.00;46654.53;6211414;23;20019;-85
2022/09/30 06:13:16;;;;;;;20.60;14.57;;;;;;;-145.18;100.00;46660.41;6213115;23;20016;-85
2022/09/30 06:15:42;;;;;;;17.70;13.90;;;;;;;-145.18;100.00;46654.53;6186757;23;20385;-86
2022/09/30 06:18:08;;;;;;;27.93;14.23;;;;;;;-145.18;100.00;46656.50;6185034;23;20286;-85
2022/09/30 06:20:35;;;;;;;21.13;15.33;;;;;;;-145.18;100.00;46654.53;6213537;23;20226;-85
2022/09/30 06:23:00;;;;;;;27.17;17.17;;;;;;;-145.18;100.00;46654.53;6212339;23;20016;-84
2022/09/30 06:25:30;;;;;;;25.83;17.93;;;;;;;-145.18;100.00;46662.34;6210430;23;20425;-84
2022/09/30 06:27:56;;;;;;;25.33;19.53;;;;;;;-145.18;100.00;46658.44;6209562;23;20433;-84
2022/09/30 06:30:22;;;;;;;26.47;20.20;;;;;;;-145.18;100.00;46656.50;6183796;23;20245;-85
2022/09/30 06:32:47;;;;;;;27.40;21.53;;;;;;;-145.18;100.00;46654.53;6211522;23;20226;-84
2022/09/30 06:35:13;;;;;;;27.80;21.83;;;;;;;-145.18;100.00;46660.41;6209642;23;20008;-86
2022/09/30 06:37:38;;;;;;;31.87;22.23;;;;;;;-145.18;100.00;46652.59;6209728;23;20035;-85
2022/09/30 06:40:07;;;;;;;34.17;22.13;;;;;;;-145.18;100.00;46654.53;6210101;23;20008;-85
2022/09/30 06:42:33;;;;;;;33.17;23.97;;;;;;;-145.18;100.00;46652.59;6183083;23;20337;-85
2022/09/30 06:44:59;;;;;;;36.00;25.27;;;;;;;-145.18;100.00;46654.53;6209262;23;20273;-85
2022/09/30 06:47:24;;;;;;;38.93;26.80;;;;;;;-145.18;100.00;46652.59;6185974;23;20234;-85
2022/09/30 06:49:52;;;;;;;38.37;27.37;;;;;;;-145.18;100.00;46650.63;6186002;23;20379;-85
2022/09/30 06:52:18;;;;;;;34.33;26.90;;;;;;;-145.18;100.00;46652.59;6212290;23;20337;-84
2022/09/30 06:54:45;;;;;;;38.13;27.53;;;;;;;-145.18;100.00;46646.72;6185420;23;20743;-85
2022/09/30 06:57:11;;;;;;;40.77;28.80;;;;;;;-145.18;100.00;46654.53;6186090;23;20591;-85
2022/09/30 06:59:36;;;;;;;41.90;29.03;;;;;;;-145.18;100.00;46650.63;6212290;23;20301;-85
2022/09/30 07:02:02;;;;;;;43.50;29.43;;;;;;;-145.18;100.00;46646.72;6212363;23;20354;-85
2022/09/30 07:04:27;;;;;;;43.20;30.20;;;;;;;-145.18;100.00;46650.63;6211026;23;20016;-85
2022/09/30 07:06:53;;;;;;;41.27;29.80;;;;;;;-145.18;100.00;46650.63;6210239;23;20032;-85
2022/09/30 07:09:19;;;;;;;39.33;29.93;;;;;;;-145.18;100.00;46650.63;6183971;23;20047;-85
2022/09/30 07:11:44;;;;;;;40.93;28.13;;;;;;;-145.18;100.00;46648.69;6186146;23;20707;-85
2022/09/30 07:14:12;;;;;;;41.07;30.50;;;;;;;-145.18;100.00;46646.72;6209551;23;20334;-85
2022/09/30 07:16:37;;;;;;;45.93;30.47;;;;;;;-145.18;100.00;46644.78;6210673;23;20004;-86
2022/09/30 07:19:03;;;;;;;42.30;30.33;;;;;;;-145.18;100.00;46648.69;6209687;23;20226;-86
2022/09/30 07:21:30;;;;;;;46.10;29.40;;;;;;;-145.18;100.00;46644.78;6213020;23;20090;-86
2022/09/30 07:23:57;;;;;;;41.53;27.97;;;;;;;-145.18;100.00;46650.63;6184012;23;20238;-84
2022/09/30 07:26:24;;;;;;;45.00;30.60;;;;;;;-145.18;100.00;46644.78;6186329;23;20257;-85
2022/09/30 07:28:50;;;;;;;38.07;26.70;;;;;;;-145.18;100.00;46646.72;6185192;23;20250;-85
2022/09/30 07:31:21;;;;;;;40.50;29.37;;;;;;;-145.18;100.00;46650.63;6212756;23;20597;-79
2022/09/30 07:33:47;;;;;;;39.00;28.60;;;;;;;-145.18;100.00;46650.63;6210587;23;20008;-76
2022/09/30 07:36:17;;;;;;;43.63;29.27;;;;;;;-145.18;100.00;46650.63;6211185;23;20789;-76
2022/09/30 07:38:44;;;;;;;40.23;28.90;;;;;;;-145.18;100.00;46650.63;6212014;23;20004;-76
2022/09/30 07:41:13;;;;;;;41.60;27.23;;;;;;;-145.18;100.00;46650.63;6212342;23;20226;-76
2022/09/30 07:43:42;;;;;;;39.03;27.40;;;;;;;-145.18;100.00;46648.69;6208427;23;20615;-76
2022/09/30 07:46:16;;;;;;;35.37;26.57;;;;;;;-145.18;100.00;46652.59;6212252;23;20761;-76
2022/09/30 07:48:49;;;;;;;38.33;25.47;;;;;;;-145.18;100.00;46646.72;6212176;23;20238;-77
2022/09/30 07:51:22;;;;;;;38.13;25.40;;;;;;;-145.18;100.00;46648.69;6212789;23;20738;-77
2022/09/30 07:53:57;;;;;;;33.47;25.43;;;;;;;-145.18;100.00;46648.69;6211585;23;20231;-77
2022/09/30 07:56:23;;;;;;;31.08;22.63;;;;;;;-145.18;100.00;46648.69;6211956;23;20223;-77
2022/09/30 07:58:53;;;;;;;30.50;23.10;;;;;;;-145.18;100.00;46652.59;6211717;23;20330;-77
2022/09/30 08:01:19;;;;;;;31.60;23.53;;;;;;;-145.18;100.00;46652.59;6212566;23;20607;-77
2022/09/30 08:03:44;;;;;;;26.37;21.80;;;;;;;-145.18;100.00;46654.53;6211076;23;20281;-77
2022/09/30 08:06:17;;;;;;;33.43;22.00;;;;;;;-145.18;100.00;46654.53;6208372;23;20067;-77
2022/09/30 08:08:44;;;;;;;31.80;21.80;;;;;;;-145.18;100.00;46658.44;6210522;23;20012;-77
2022/09/30 08:11:12;;;;;;;23.93;20.20;;;;;;;-145.18;100.00;46658.44;6210989;23;20814;-77
2022/09/30 08:13:37;;;;;;;30.97;20.90;;;;;;;-145.18;100.00;46656.50;6210622;23;20842;-77
2022/09/30 08:16:03;;;;;;;26.57;19.83;;;;;;;-145.18;100.00;46662.34;6183589;23;20242;-77
2022/09/30 08:18:29;;;;;;;25.80;19.67;;;;;;;-145.18;100.00;46668.22;6183984;23;19992;-76
2022/09/30 08:20:55;;;;;;;29.20;18.87;;;;;;;-145.18;100.00;46662.34;6210662;23;20226;-77
2022/09/30 08:23:20;;;;;;;25.83;19.90;;;;;;;-145.18;100.00;46666.25;6210569;23;20001;-76
2022/09/30 08:25:46;;;;;;;28.40;19.20;;;;;;;-145.18;100.00;46662.34;6210046;23;20528;-77
2022/09/30 08:28:12;;;;;;;24.63;17.90;;;;;;;-145.18;100.00;46670.16;6209758;23;20036;-77
2022/09/30 08:30:38;;;;;;;23.90;18.37;;;;;;;-145.18;100.00;46668.22;6211393;23;20081;-76
2022/09/30 08:33:03;;;;;;;28.00;16.93;;;;;;;-145.18;100.00;46672.13;6184251;23;20047;-76
2022/09/30 08:35:29;;;;;;;22.97;17.07;;;;;;;-145.18;100.00;46666.25;6211140;23;20005;-77
2022/09/30 08:37:54;;;;;;;21.30;16.40;;;;;;;-145.18;100.00;46672.13;6210153;23;20004;-77
2022/09/30 08:40:25;;;;;;;21.60;15.10;;;;;;;-145.18;100.00;46672.13;6208866;23;20008;-77
2022/09/30 08:43:12;;;;;;;20.83;15.93;;;;;;;-145.18;100.00;46666.25;6211411;23;20005;-77
2022/09/30 08:45:50;;;;;;;20.50;14.93;;;;;;;-145.18;100.00;46670.16;6212262;23;20008;-77
2022/09/30 08:48:38;;;;;;;24.13;15.17;;;;;;;-145.18;100.00;46672.13;6211943;23;20016;-77
2022/09/30 08:51:23;;;;;;;19.50;15.70;;;;;;;-145.18;100.00;46676.03;6209906;23;20409;-77
2022/09/30 08:53:49;;;;;;;18.95;14.70;;;;;;;-145.18;100.00;46677.97;6211866;23;20027;-77
2022/09/30 08:56:27;;;;;;;19.33;13.27;;;;;;;-145.18;100.00;46679.94;6210711;23;20342;-76
2022/09/30 08:59:13;;;;;;;16.80;13.67;;;;;;;-145.18;100.00;46676.03;6211423;23;20345;-77
2022/09/30 09:01:45;;;;;;;15.27;11.70;;;;;;;-145.18;100.00;46676.03;6211749;23;20054;-77
2022/09/30 09:04:11;;;;;;;17.30;12.40;;;;;;;-145.18;100.00;46677.97;6209765;23;20020;-77
2022/09/30 09:07:02;;;;;;;17.47;12.93;;;;;;;-145.18;100.00;46677.97;6212101;23;20013;-77
2022/09/30 09:09:49;;;;;;;14.37;11.47;;;;;;;-145.18;100.00;46681.88;6212298;23;20004;-77
2022/09/30 09:12:43;;;;;;;18.70;12.47;;;;;;;-145.18;100.00;46679.94;6213800;23;20085;-76
2022/09/30 09:15:28;;;;;;;16.80;12.07;;;;;;;-145.18;100.00;46681.88;6212826;23;20024;-77
2022/09/30 09:18:24;;;;;;;16.37;10.53;;;;;;;-145.18;100.00;46679.94;6213628;23;20079;-77
2022/09/30 09:21:11;;;;;;;17.55;11.77;;;;;;;-145.18;100.00;46668.22;6213842;23;20221;-78
2022/09/30 09:23:37;;;;;;;15.13;10.40;;;;;;;-145.18;100.00;46662.34;6213482;23;20088;-77
2022/09/30 09:26:03;;;;;;;13.00;9.50;;;;;;;-145.18;100.00;46646.72;6213890;23;20130;-77
2022/09/30 09:28:39;;;;;;;13.30;9.47;;;;;;;-145.18;100.00;46617.41;6213435;23;20457;-77
2022/09/30 09:31:04;;;;;;;;;;;;;;;-145.18;100.00;46588.13;6212558;23;20015;-77
2022/09/30 09:33:35;;;;;;;12.85;8.80;;;;;;;-145.18;100.00;46564.69;6212238;23;19991;-77
2022/09/30 09:36:13;;;;;;;14.93;8.37;;;;;;;-145.18;100.00;46560.78;6212879;23;20004;-77
2022/09/30 09:38:55;;;;;;;12.07;8.37;;;;;;;-145.18;100.00;46560.78;6212153;23;20000;-77
2022/09/30 09:41:20;;;;;;;13.67;9.73;;;;;;;-145.18;100.00;46566.63;6185956;23;20388;-78
2022/09/30 09:43:57;;;;;;;14.60;10.00;;;;;;;-145.18;100.00;46570.53;6212153;23;20001;-78
2022/09/30 09:46:31;;;;;;;11.77;7.97;;;;;;;-145.18;100.00;46572.50;6212161;23;20007;-78
2022/09/30 09:49:12;;;;;;;9.90;7.97;;;;;;;-145.18;100.00;46582.25;6211754;23;20016;-78
2022/09/30 09:51:42;;;;;;;11.37;8.83;;;;;;;-145.18;100.00;46584.22;6210745;23;20691;-78
2022/09/30 09:54:11;;;;;;;10.90;7.87;;;;;;;-145.18;100.00;46584.22;6209415;23;20005;-78
2022/09/30 09:56:36;;;;;;;11.70;7.17;;;;;;;-145.18;100.00;46584.22;6211819;23;20006;-78
2022/09/30 09:59:13;;;;;;;10.67;7.17;;;;;;;-145.18;100.00;46584.22;6210756;23;20008;-78
2022/09/30 10:01:42;;;;;;;10.90;6.77;;;;;;;-145.18;100.00;46584.22;6212212;23;20323;-79
2022/09/30 10:04:11;;;;;;;10.53;6.67;;;;;;;-145.18;100.00;46588.13;6212069;23;20139;-79
2022/09/30 10:06:42;;;;;;;9.90;6.77;;;;;;;-145.18;100.00;46593.97;6212368;23;20644;-79
2022/09/30 10:09:21;;;;;;;8.13;5.27;;;;;;;-145.18;100.00;46595.94;6212296;23;20552;-79
2022/09/30 10:11:47;;;;;;;6.67;5.27;;;;;;;-145.18;100.00;46593.97;6214013;23;20455;-79
2022/09/30 10:14:19;;;;;;;9.40;5.30;;;;;;;-145.18;100.00;46603.75;6212905;23;20028;-79
2022/09/30 10:16:45;;;;;;;6.80;4.43;;;;;;;-145.18;100.00;46605.69;6187014;23;20004;-79
2022/09/30 10:19:28;;;;;;;10.87;4.43;;;;;;;-145.18;100.00;46617.41;6213141;23;20016;-79
2022/09/30 10:22:15;;;;;;;7.10;4.13;;;;;;;-145.18;100.00;46623.28;6212609;23;20008;-79
2022/09/30 10:24:41;;;;;;;8.03;4.77;;;;;;;-145.18;100.00;46625.22;6197873;23;20137;-79
2022/09/30 10:27:28;;;;;;;7.87;4.23;;;;;;;-145.18;100.00;46631.09;6213100;23;20014;-80
2022/09/30 10:29:53;;;;;;;10.73;4.53;;;;;;;-145.18;100.00;46638.91;6212145;23;20009;-79
2022/09/30 10:32:20;;;;;;;6.13;3.30;;;;;;;-145.18;100.00;46629.13;6212778;23;20460;-79
2022/09/30 10:34:54;;;;;;;5.90;4.40;;;;;;;-145.18;100.00;46656.50;6212663;23;20005;-80
2022/09/30 10:37:23;;;;;;;6.03;4.00;;;;;;;-145.18;100.00;46689.69;6213311;23;20011;-79
2022/09/30 10:40:05;;;;;;;7.77;3.83;;;;;;;-145.18;100.00;46687.75;6212889;23;20036;-79
2022/09/30 10:42:33;;;;;;;7.80;3.77;;;;;;;-145.18;100.00;46666.25;6212483;23;20008;-80
2022/09/30 10:45:18;;;;;;;5.60;3.40;;;;;;;-145.18;100.00;46646.72;6212061;23;20004;-80
2022/09/30 10:47:48;;;;;;;6.17;3.30;;;;;;;-145.18;100.00;46644.78;6213075;23;20047;-80
2022/09/30 10:50:19;;;;;;;8.87;4.63;;;;;;;-145.18;100.00;46681.88;6212928;23;20434;-79
2022/09/30 10:53:26;;;;;;;8.97;4.10;;;;;;;-145.18;100.00;46711.19;6213538;23;20001;-79
2022/09/30 10:55:55;;;;;;;8.95;4.75;;;;;;;-145.18;100.00;46687.75;6193423;23;20011;-79
2022/09/30 10:58:50;;;;;;;7.13;4.57;;;;;;;-145.18;100.00;46672.13;6211259;23;20005;-79
2022/09/30 11:01:22;;;;;;;8.47;5.87;;;;;;;-145.18;100.00;46635.00;6212451;23;20028;-79
2022/09/30 11:04:18;;;;;;;8.60;5.43;;;;;;;-145.18;100.00;46656.50;6212716;23;20063;-79
2022/09/30 11:06:46;;;;;;;5.93;4.87;;;;;;;-145.18;100.00;46648.69;6205286;23;20005;-79
2022/09/30 11:09:33;;;;;;;7.33;4.20;;;;;;;-145.18;100.00;46695.56;6185208;23;20350;-80
2022/09/30 11:12:10;;;;;;;6.87;4.90;;;;;;;-145.18;100.00;46668.22;6212401;23;20008;-79
2022/09/30 11:14:46;;;;;;;11.50;5.60;;;;;;;-145.18;100.00;46640.88;6212594;23;20059;-79
2022/09/30 11:17:26;;;;;;;5.80;4.30;;;;;;;-145.18;100.00;46664.31;6212251;23;20000;-79
2022/09/30 11:20:06;;;;;;;5.93;3.83;;;;;;;-145.18;100.00;46687.75;6211251;23;20015;-79
2022/09/30 11:22:56;;;;;;;5.50;3.50;;;;;;;-145.18;100.00;46691.66;6210987;23;20027;-79
2022/09/30 11:25:46;;;;;;;4.00;3.27;;;;;;;-145.18;100.00;46701.41;6212973;23;20001;-78
2022/09/30 11:28:27;;;;;;;9.30;3.47;;;;;;;-145.18;100.00;46703.38;6212786;23;20004;-79